sensor_id;sensor_type;location;lat;lon;timestamp;temperature;humidity
38265;DHT22;24062;47.480;8.768;2022-07-29T00:00:12;19.00;70.70
38265;DHT22;24062;47.480;8.768;2022-07-29T00:02:39;19.00;71.00
38265;DHT22;24062;47.480;8.768;2022-07-29T00:05:08;19.00;71.00
38265;DHT22;24062;47.480;8.768;2022-07-29T00:07:36;19.00;71.00
38265;DHT22;24062;47.480;8.768;2022-07-29T00:10:04;19.00;71.30
38265;DHT22;24062;47.480;8.768;2022-07-29T00:12:31;19.00;71.30
38265;DHT22;24062;47.480;8.768;2022-07-29T00:14:58;19.10;71.50
38265;DHT22;24062;47.480;8.768;2022-07-29T00:17:24;18.90;71.30
38265;DHT22;24062;47.480;8.768;2022-07-29T00:19:52;18.90;71.40
38265;DHT22;24062;47.480;8.768;2022-07-29T00:22:19;18.80;71.30
38265;DHT22;24062;47.480;8.768;2022-07-29T00:24:48;18.80;71.40
38265;DHT22;24062;47.480;8.768;2022-07-29T00:27:15;18.80;71.60
38265;DHT22;24062;47.480;8.768;2022-07-29T00:29:42;18.70;71.60
38265;DHT22;24062;47.480;8.768;2022-07-29T00:32:09;18.70;71.80
38265;DHT22;24062;47.480;8.768;2022-07-29T00:34:36;18.60;71.80
38265;DHT22;24062;47.480;8.768;2022-07-29T00:37:20;18.50;71.90
38265;DHT22;24062;47.480;8.768;2022-07-29T00:39:48;18.50;72.00
38265;DHT22;24062;47.480;8.768;2022-07-29T00:42:16;18.40;72.00
38265;DHT22;24062;47.480;8.768;2022-07-29T00:44:42;18.50;72.00
38265;DHT22;24062;47.480;8.768;2022-07-29T00:47:10;18.40;72.10
38265;DHT22;24062;47.480;8.768;2022-07-29T00:49:39;18.40;72.20
38265;DHT22;24062;47.480;8.768;2022-07-29T00:52:07;18.40;72.30
38265;DHT22;24062;47.480;8.768;2022-07-29T00:54:35;18.40;73.00
38265;DHT22;24062;47.480;8.768;2022-07-29T00:57:04;18.40;72.20
38265;DHT22;24062;47.480;8.768;2022-07-29T00:59:32;18.40;72.40
38265;DHT22;24062;47.480;8.768;2022-07-29T01:01:59;18.30;72.20
38265;DHT22;24062;47.480;8.768;2022-07-29T01:04:26;18.40;72.40
38265;DHT22;24062;47.480;8.768;2022-07-29T01:06:55;18.40;72.80
38265;DHT22;24062;47.480;8.768;2022-07-29T01:09:22;18.40;72.80
38265;DHT22;24062;47.480;8.768;2022-07-29T01:11:50;18.40;72.90
38265;DHT22;24062;47.480;8.768;2022-07-29T01:14:18;18.40;72.90
38265;DHT22;24062;47.480;8.768;2022-07-29T01:16:51;18.40;73.10
38265;DHT22;24062;47.480;8.768;2022-07-29T01:19:39;18.40;73.40
38265;DHT22;24062;47.480;8.768;2022-07-29T01:22:22;18.50;73.50
38265;DHT22;24062;47.480;8.768;2022-07-29T01:25:16;18.50;73.40
38265;DHT22;24062;47.480;8.768;2022-07-29T01:28:06;18.50;73.40
38265;DHT22;24062;47.480;8.768;2022-07-29T01:30:38;18.60;73.40
38265;DHT22;24062;47.480;8.768;2022-07-29T01:33:07;18.60;73.20
38265;DHT22;24062;47.480;8.768;2022-07-29T01:35:39;18.60;73.20
38265;DHT22;24062;47.480;8.768;2022-07-29T01:38:09;18.60;73.30
38265;DHT22;24062;47.480;8.768;2022-07-29T01:40:43;18.60;73.40
38265;DHT22;24062;47.480;8.768;2022-07-29T01:43:14;18.60;73.30
38265;DHT22;24062;47.480;8.768;2022-07-29T01:45:46;18.60;73.30
38265;DHT22;24062;47.480;8.768;2022-07-29T01:48:18;18.60;73.40
38265;DHT22;24062;47.480;8.768;2022-07-29T01:50:48;18.60;73.50
38265;DHT22;24062;47.480;8.768;2022-07-29T01:53:21;18.70;73.70
38265;DHT22;24062;47.480;8.768;2022-07-29T01:55:52;18.70;73.80
38265;DHT22;24062;47.480;8.768;2022-07-29T01:58:20;18.70;73.70
38265;DHT22;24062;47.480;8.768;2022-07-29T02:00:50;18.70;73.50
38265;DHT22;24062;47.480;8.768;2022-07-29T02:03:18;18.70;73.50
38265;DHT22;24062;47.480;8.768;2022-07-29T02:05:46;18.60;73.40
38265;DHT22;24062;47.480;8.768;2022-07-29T02:08:16;18.60;73.50
38265;DHT22;24062;47.480;8.768;2022-07-29T02:10:45;18.60;73.50
38265;DHT22;24062;47.480;8.768;2022-07-29T02:13:15;18.50;73.50
38265;DHT22;24062;47.480;8.768;2022-07-29T02:15:43;18.50;73.50
38265;DHT22;24062;47.480;8.768;2022-07-29T02:18:15;18.50;73.50
38265;DHT22;24062;47.480;8.768;2022-07-29T02:20:45;18.30;73.40
38265;DHT22;24062;47.480;8.768;2022-07-29T02:23:12;18.30;73.50
38265;DHT22;24062;47.480;8.768;2022-07-29T02:25:42;18.20;73.60
38265;DHT22;24062;47.480;8.768;2022-07-29T02:28:09;18.10;73.60
38265;DHT22;24062;47.480;8.768;2022-07-29T02:30:40;18.10;73.90
38265;DHT22;24062;47.480;8.768;2022-07-29T02:33:09;18.00;74.00
38265;DHT22;24062;47.480;8.768;2022-07-29T02:35:40;18.00;74.10
38265;DHT22;24062;47.480;8.768;2022-07-29T02:38:08;17.90;74.20
38265;DHT22;24062;47.480;8.768;2022-07-29T02:40:54;18.00;74.30
38265;DHT22;24062;47.480;8.768;2022-07-29T02:43:22;17.90;74.10
38265;DHT22;24062;47.480;8.768;2022-07-29T02:45:52;17.90;74.10
38265;DHT22;24062;47.480;8.768;2022-07-29T02:48:24;17.90;74.10
38265;DHT22;24062;47.480;8.768;2022-07-29T02:51:01;17.80;74.20
38265;DHT22;24062;47.480;8.768;2022-07-29T02:53:33;17.80;74.40
38265;DHT22;24062;47.480;8.768;2022-07-29T02:56:06;17.70;74.30
38265;DHT22;24062;47.480;8.768;2022-07-29T02:58:38;17.70;74.30
38265;DHT22;24062;47.480;8.768;2022-07-29T03:01:11;17.60;74.10
38265;DHT22;24062;47.480;8.768;2022-07-29T03:03:39;17.50;74.70
38265;DHT22;24062;47.480;8.768;2022-07-29T03:06:09;17.50;74.80
38265;DHT22;24062;47.480;8.768;2022-07-29T03:08:39;17.50;75.00
38265;DHT22;24062;47.480;8.768;2022-07-29T03:11:07;17.50;75.10
38265;DHT22;24062;47.480;8.768;2022-07-29T03:13:35;17.50;75.20
38265;DHT22;24062;47.480;8.768;2022-07-29T03:16:04;17.50;75.20
38265;DHT22;24062;47.480;8.768;2022-07-29T03:18:31;17.60;75.30
38265;DHT22;24062;47.480;8.768;2022-07-29T03:20:59;17.60;75.20
38265;DHT22;24062;47.480;8.768;2022-07-29T03:23:27;17.60;75.00
38265;DHT22;24062;47.480;8.768;2022-07-29T03:25:54;17.60;75.10
38265;DHT22;24062;47.480;8.768;2022-07-29T03:28:21;17.60;75.30
38265;DHT22;24062;47.480;8.768;2022-07-29T03:30:48;17.70;75.40
38265;DHT22;24062;47.480;8.768;2022-07-29T03:33:15;17.70;75.20
38265;DHT22;24062;47.480;8.768;2022-07-29T03:35:42;17.80;75.20
38265;DHT22;24062;47.480;8.768;2022-07-29T03:38:08;17.70;75.30
38265;DHT22;24062;47.480;8.768;2022-07-29T03:40:40;17.70;75.60
38265;DHT22;24062;47.480;8.768;2022-07-29T03:43:10;17.70;75.60
38265;DHT22;24062;47.480;8.768;2022-07-29T03:45:39;17.80;75.80
38265;DHT22;24062;47.480;8.768;2022-07-29T03:48:11;17.80;75.80
38265;DHT22;24062;47.480;8.768;2022-07-29T03:50:39;17.90;75.90
38265;DHT22;24062;47.480;8.768;2022-07-29T03:53:06;17.90;76.00
38265;DHT22;24062;47.480;8.768;2022-07-29T03:55:40;17.90;76.00
38265;DHT22;24062;47.480;8.768;2022-07-29T03:58:07;17.90;76.00
38265;DHT22;24062;47.480;8.768;2022-07-29T04:00:35;18.00;76.20
38265;DHT22;24062;47.480;8.768;2022-07-29T04:03:04;18.10;76.30
38265;DHT22;24062;47.480;8.768;2022-07-29T04:05:31;18.10;76.20
38265;DHT22;24062;47.480;8.768;2022-07-29T04:07:58;18.20;76.40
38265;DHT22;24062;47.480;8.768;2022-07-29T04:10:25;18.30;76.50
38265;DHT22;24062;47.480;8.768;2022-07-29T04:12:53;18.20;76.20
38265;DHT22;24062;47.480;8.768;2022-07-29T04:15:20;18.30;76.40
38265;DHT22;24062;47.480;8.768;2022-07-29T04:17:47;18.30;76.40
38265;DHT22;24062;47.480;8.768;2022-07-29T04:20:14;18.40;76.60
38265;DHT22;24062;47.480;8.768;2022-07-29T04:22:41;18.40;76.50
38265;DHT22;24062;47.480;8.768;2022-07-29T04:25:08;18.50;76.50
38265;DHT22;24062;47.480;8.768;2022-07-29T04:27:35;18.50;76.40
38265;DHT22;24062;47.480;8.768;2022-07-29T04:30:23;18.60;76.40
38265;DHT22;24062;47.480;8.768;2022-07-29T04:32:50;18.60;76.30
38265;DHT22;24062;47.480;8.768;2022-07-29T04:35:17;18.70;76.30
38265;DHT22;24062;47.480;8.768;2022-07-29T04:37:44;18.70;76.30
38265;DHT22;24062;47.480;8.768;2022-07-29T04:40:11;18.70;76.20
38265;DHT22;24062;47.480;8.768;2022-07-29T04:42:39;18.80;76.20
38265;DHT22;24062;47.480;8.768;2022-07-29T04:45:06;18.80;76.20
38265;DHT22;24062;47.480;8.768;2022-07-29T04:47:34;18.90;76.20
38265;DHT22;24062;47.480;8.768;2022-07-29T04:50:02;18.90;76.10
38265;DHT22;24062;47.480;8.768;2022-07-29T04:52:29;18.90;76.00
38265;DHT22;24062;47.480;8.768;2022-07-29T04:54:56;18.90;76.00
38265;DHT22;24062;47.480;8.768;2022-07-29T04:57:22;19.00;76.10
38265;DHT22;24062;47.480;8.768;2022-07-29T04:59:49;19.10;76.90
38265;DHT22;24062;47.480;8.768;2022-07-29T05:02:16;19.20;76.00
38265;DHT22;24062;47.480;8.768;2022-07-29T05:04:44;19.20;76.00
38265;DHT22;24062;47.480;8.768;2022-07-29T05:07:11;19.30;76.00
38265;DHT22;24062;47.480;8.768;2022-07-29T05:09:38;19.40;76.00
38265;DHT22;24062;47.480;8.768;2022-07-29T05:12:06;19.50;76.00
38265;DHT22;24062;47.480;8.768;2022-07-29T05:14:33;19.60;75.90
38265;DHT22;24062;47.480;8.768;2022-07-29T05:17:00;19.70;75.70
38265;DHT22;24062;47.480;8.768;2022-07-29T05:19:27;19.80;75.50
38265;DHT22;24062;47.480;8.768;2022-07-29T05:21:55;19.90;75.40
38265;DHT22;24062;47.480;8.768;2022-07-29T05:24:22;19.90;76.00
38265;DHT22;24062;47.480;8.768;2022-07-29T05:26:49;19.90;75.30
38265;DHT22;24062;47.480;8.768;2022-07-29T05:29:16;20.00;75.40
38265;DHT22;24062;47.480;8.768;2022-07-29T05:31:43;19.90;75.00
38265;DHT22;24062;47.480;8.768;2022-07-29T05:34:10;19.80;75.10
38265;DHT22;24062;47.480;8.768;2022-07-29T05:36:36;19.80;75.40
38265;DHT22;24062;47.480;8.768;2022-07-29T05:39:05;19.80;75.40
38265;DHT22;24062;47.480;8.768;2022-07-29T05:41:32;19.80;75.30
38265;DHT22;24062;47.480;8.768;2022-07-29T05:43:59;19.80;75.30
38265;DHT22;24062;47.480;8.768;2022-07-29T05:46:26;19.70;75.30
38265;DHT22;24062;47.480;8.768;2022-07-29T05:48:52;19.80;75.60
38265;DHT22;24062;47.480;8.768;2022-07-29T05:51:19;19.80;75.60
38265;DHT22;24062;47.480;8.768;2022-07-29T05:53:46;19.90;75.90
38265;DHT22;24062;47.480;8.768;2022-07-29T05:56:14;20.00;76.10
38265;DHT22;24062;47.480;8.768;2022-07-29T05:58:41;20.10;76.20
38265;DHT22;24062;47.480;8.768;2022-07-29T06:01:08;20.30;76.20
38265;DHT22;24062;47.480;8.768;2022-07-29T06:03:35;20.50;76.20
38265;DHT22;24062;47.480;8.768;2022-07-29T06:06:03;20.70;76.80
38265;DHT22;24062;47.480;8.768;2022-07-29T06:08:31;20.90;76.10
38265;DHT22;24062;47.480;8.768;2022-07-29T06:10:59;21.10;76.10
38265;DHT22;24062;47.480;8.768;2022-07-29T06:13:27;21.30;76.00
38265;DHT22;24062;47.480;8.768;2022-07-29T06:15:54;21.70;76.00
38265;DHT22;24062;47.480;8.768;2022-07-29T06:18:21;22.00;75.90
38265;DHT22;24062;47.480;8.768;2022-07-29T06:20:49;22.30;75.80
38265;DHT22;24062;47.480;8.768;2022-07-29T06:23:16;22.70;76.30
38265;DHT22;24062;47.480;8.768;2022-07-29T06:25:43;22.90;74.80
38265;DHT22;24062;47.480;8.768;2022-07-29T06:28:10;22.80;74.10
38265;DHT22;24062;47.480;8.768;2022-07-29T06:30:38;22.80;74.20
38265;DHT22;24062;47.480;8.768;2022-07-29T06:33:05;22.90;75.00
38265;DHT22;24062;47.480;8.768;2022-07-29T06:35:33;23.00;74.00
38265;DHT22;24062;47.480;8.768;2022-07-29T06:38:02;23.10;73.50
38265;DHT22;24062;47.480;8.768;2022-07-29T06:40:29;23.10;74.10
38265;DHT22;24062;47.480;8.768;2022-07-29T06:43:13;23.20;73.30
38265;DHT22;24062;47.480;8.768;2022-07-29T06:45:41;23.40;73.30
38265;DHT22;24062;47.480;8.768;2022-07-29T06:48:09;23.60;72.90
38265;DHT22;24062;47.480;8.768;2022-07-29T06:50:36;23.70;72.40
38265;DHT22;24062;47.480;8.768;2022-07-29T06:53:03;23.60;71.60
38265;DHT22;24062;47.480;8.768;2022-07-29T06:55:30;23.50;71.60
38265;DHT22;24062;47.480;8.768;2022-07-29T06:57:58;23.50;71.50
38265;DHT22;24062;47.480;8.768;2022-07-29T07:00:25;23.50;71.30
38265;DHT22;24062;47.480;8.768;2022-07-29T07:02:53;23.50;71.20
38265;DHT22;24062;47.480;8.768;2022-07-29T07:05:20;23.40;70.90
38265;DHT22;24062;47.480;8.768;2022-07-29T07:07:47;23.30;70.70
38265;DHT22;24062;47.480;8.768;2022-07-29T07:10:14;23.10;70.50
38265;DHT22;24062;47.480;8.768;2022-07-29T07:12:41;23.00;70.60
38265;DHT22;24062;47.480;8.768;2022-07-29T07:15:09;23.00;70.80
38265;DHT22;24062;47.480;8.768;2022-07-29T07:17:35;22.90;70.90
38265;DHT22;24062;47.480;8.768;2022-07-29T07:20:05;22.80;70.60
38265;DHT22;24062;47.480;8.768;2022-07-29T07:22:32;22.70;70.20
38265;DHT22;24062;47.480;8.768;2022-07-29T07:25:00;22.60;70.20
38265;DHT22;24062;47.480;8.768;2022-07-29T07:27:27;22.50;70.50
38265;DHT22;24062;47.480;8.768;2022-07-29T07:29:54;22.50;70.70
38265;DHT22;24062;47.480;8.768;2022-07-29T07:32:20;22.40;70.90
38265;DHT22;24062;47.480;8.768;2022-07-29T07:34:47;22.40;71.10
38265;DHT22;24062;47.480;8.768;2022-07-29T07:37:15;22.30;71.10
38265;DHT22;24062;47.480;8.768;2022-07-29T07:39:44;22.20;71.00
38265;DHT22;24062;47.480;8.768;2022-07-29T07:42:11;22.20;71.10
38265;DHT22;24062;47.480;8.768;2022-07-29T07:44:39;22.10;71.10
38265;DHT22;24062;47.480;8.768;2022-07-29T07:47:06;22.20;71.40
38265;DHT22;24062;47.480;8.768;2022-07-29T07:49:32;22.10;71.50
38265;DHT22;24062;47.480;8.768;2022-07-29T07:51:59;22.10;71.60
38265;DHT22;24062;47.480;8.768;2022-07-29T07:54:28;22.10;71.70
38265;DHT22;24062;47.480;8.768;2022-07-29T07:56:55;22.00;71.80
38265;DHT22;24062;47.480;8.768;2022-07-29T07:59:21;21.90;72.00
38265;DHT22;24062;47.480;8.768;2022-07-29T08:01:48;21.90;72.40
38265;DHT22;24062;47.480;8.768;2022-07-29T08:04:16;21.80;72.50
38265;DHT22;24062;47.480;8.768;2022-07-29T08:06:43;21.70;72.00
38265;DHT22;24062;47.480;8.768;2022-07-29T08:09:09;21.60;72.60
38265;DHT22;24062;47.480;8.768;2022-07-29T08:11:38;21.60;73.30
38265;DHT22;24062;47.480;8.768;2022-07-29T08:14:05;21.70;73.70
38265;DHT22;24062;47.480;8.768;2022-07-29T08:16:31;21.80;73.90
38265;DHT22;24062;47.480;8.768;2022-07-29T08:18:58;22.00;74.00
38265;DHT22;24062;47.480;8.768;2022-07-29T08:21:25;22.00;73.50
38265;DHT22;24062;47.480;8.768;2022-07-29T08:23:52;21.90;73.30
38265;DHT22;24062;47.480;8.768;2022-07-29T08:26:41;21.80;73.40
38265;DHT22;24062;47.480;8.768;2022-07-29T08:29:08;21.80;73.80
38265;DHT22;24062;47.480;8.768;2022-07-29T08:31:36;21.90;74.10
38265;DHT22;24062;47.480;8.768;2022-07-29T08:34:03;22.10;74.60
38265;DHT22;24062;47.480;8.768;2022-07-29T08:36:30;22.30;75.00
38265;DHT22;24062;47.480;8.768;2022-07-29T08:38:57;22.50;74.90
38265;DHT22;24062;47.480;8.768;2022-07-29T08:41:25;22.60;74.60
38265;DHT22;24062;47.480;8.768;2022-07-29T08:43:53;22.60;74.70
38265;DHT22;24062;47.480;8.768;2022-07-29T08:46:22;22.60;74.70
38265;DHT22;24062;47.480;8.768;2022-07-29T08:48:49;22.60;74.70
38265;DHT22;24062;47.480;8.768;2022-07-29T08:51:18;22.50;74.70
38265;DHT22;24062;47.480;8.768;2022-07-29T08:53:46;22.60;75.20
38265;DHT22;24062;47.480;8.768;2022-07-29T08:56:15;22.60;75.10
38265;DHT22;24062;47.480;8.768;2022-07-29T08:58:44;22.70;75.20
38265;DHT22;24062;47.480;8.768;2022-07-29T09:01:14;22.70;75.30
38265;DHT22;24062;47.480;8.768;2022-07-29T09:03:44;22.80;76.30
38265;DHT22;24062;47.480;8.768;2022-07-29T09:06:13;23.10;76.20
38265;DHT22;24062;47.480;8.768;2022-07-29T09:08:40;23.40;76.40
38265;DHT22;24062;47.480;8.768;2022-07-29T09:11:07;23.70;76.10
38265;DHT22;24062;47.480;8.768;2022-07-29T09:13:35;24.00;76.20
38265;DHT22;24062;47.480;8.768;2022-07-29T09:16:02;24.40;75.70
38265;DHT22;24062;47.480;8.768;2022-07-29T09:18:37;24.50;74.80
38265;DHT22;24062;47.480;8.768;2022-07-29T09:21:06;24.90;75.50
38265;DHT22;24062;47.480;8.768;2022-07-29T09:24:04;25.50;75.80
38265;DHT22;24062;47.480;8.768;2022-07-29T09:26:33;26.30;75.50
38265;DHT22;24062;47.480;8.768;2022-07-29T09:29:08;27.10;75.00
38265;DHT22;24062;47.480;8.768;2022-07-29T09:31:36;27.50;73.60
38265;DHT22;24062;47.480;8.768;2022-07-29T09:34:05;27.80;72.70
38265;DHT22;24062;47.480;8.768;2022-07-29T09:36:39;28.10;72.30
38265;DHT22;24062;47.480;8.768;2022-07-29T09:39:06;28.30;71.60
38265;DHT22;24062;47.480;8.768;2022-07-29T09:41:45;28.60;71.30
38265;DHT22;24062;47.480;8.768;2022-07-29T09:44:12;28.60;69.80
38265;DHT22;24062;47.480;8.768;2022-07-29T09:46:40;28.50;68.90
38265;DHT22;24062;47.480;8.768;2022-07-29T09:49:11;28.30;68.50
38265;DHT22;24062;47.480;8.768;2022-07-29T09:51:39;28.10;67.80
38265;DHT22;24062;47.480;8.768;2022-07-29T09:54:22;28.00;67.60
38265;DHT22;24062;47.480;8.768;2022-07-29T09:56:49;28.10;67.70
38265;DHT22;24062;47.480;8.768;2022-07-29T09:59:16;28.40;67.10
38265;DHT22;24062;47.480;8.768;2022-07-29T10:01:43;28.80;67.50
38265;DHT22;24062;47.480;8.768;2022-07-29T10:04:12;29.10;66.40
38265;DHT22;24062;47.480;8.768;2022-07-29T10:06:56;29.30;65.20
38265;DHT22;24062;47.480;8.768;2022-07-29T10:09:24;29.50;65.20
38265;DHT22;24062;47.480;8.768;2022-07-29T10:12:09;30.00;65.00
38265;DHT22;24062;47.480;8.768;2022-07-29T10:14:39;30.30;63.30
38265;DHT22;24062;47.480;8.768;2022-07-29T10:17:07;30.30;62.00
38265;DHT22;24062;47.480;8.768;2022-07-29T10:19:37;30.00;60.50
38265;DHT22;24062;47.480;8.768;2022-07-29T10:22:06;29.60;59.50
38265;DHT22;24062;47.480;8.768;2022-07-29T10:24:35;29.40;60.40
38265;DHT22;24062;47.480;8.768;2022-07-29T10:27:04;29.40;60.80
38265;DHT22;24062;47.480;8.768;2022-07-29T10:29:31;29.40;59.90
38265;DHT22;24062;47.480;8.768;2022-07-29T10:32:14;29.40;59.80
38265;DHT22;24062;47.480;8.768;2022-07-29T10:35:15;29.30;59.30
38265;DHT22;24062;47.480;8.768;2022-07-29T10:40:41;29.90;59.60
38265;DHT22;24062;47.480;8.768;2022-07-29T10:43:32;30.10;58.70
38265;DHT22;24062;47.480;8.768;2022-07-29T10:46:02;30.10;58.00
38265;DHT22;24062;47.480;8.768;2022-07-29T10:48:29;30.20;57.50
38265;DHT22;24062;47.480;8.768;2022-07-29T10:50:59;30.40;57.50
38265;DHT22;24062;47.480;8.768;2022-07-29T10:53:47;30.70;57.00
38265;DHT22;24062;47.480;8.768;2022-07-29T10:56:24;31.10;57.10
38265;DHT22;24062;47.480;8.768;2022-07-29T10:59:23;31.60;56.90
38265;DHT22;24062;47.480;8.768;2022-07-29T11:01:54;31.90;56.70
38265;DHT22;24062;47.480;8.768;2022-07-29T11:04:59;32.50;56.60
38265;DHT22;24062;47.480;8.768;2022-07-29T11:07:28;32.70;56.00
38265;DHT22;24062;47.480;8.768;2022-07-29T11:10:23;32.90;55.30
38265;DHT22;24062;47.480;8.768;2022-07-29T11:12:50;32.80;55.10
38265;DHT22;24062;47.480;8.768;2022-07-29T11:15:19;32.90;55.10
38265;DHT22;24062;47.480;8.768;2022-07-29T11:18:06;32.90;54.70
38265;DHT22;24062;47.480;8.768;2022-07-29T11:20:35;33.00;54.40
38265;DHT22;24062;47.480;8.768;2022-07-29T11:23:17;33.10;54.20
38265;DHT22;24062;47.480;8.768;2022-07-29T11:25:45;33.40;53.90
38265;DHT22;24062;47.480;8.768;2022-07-29T11:28:16;33.70;53.90
38265;DHT22;24062;47.480;8.768;2022-07-29T11:30:51;33.80;52.80
38265;DHT22;24062;47.480;8.768;2022-07-29T11:33:28;33.80;52.50
38265;DHT22;24062;47.480;8.768;2022-07-29T11:36:08;33.90;52.10
38265;DHT22;24062;47.480;8.768;2022-07-29T11:38:37;33.90;51.80
38265;DHT22;24062;47.480;8.768;2022-07-29T11:41:24;34.10;51.50
38265;DHT22;24062;47.480;8.768;2022-07-29T11:43:52;34.20;51.40
38265;DHT22;24062;47.480;8.768;2022-07-29T11:46:43;34.30;50.70
38265;DHT22;24062;47.480;8.768;2022-07-29T11:49:11;34.30;50.60
38265;DHT22;24062;47.480;8.768;2022-07-29T11:51:38;34.30;50.20
38265;DHT22;24062;47.480;8.768;2022-07-29T11:54:09;34.50;50.20
38265;DHT22;24062;47.480;8.768;2022-07-29T11:56:39;34.70;50.00
38265;DHT22;24062;47.480;8.768;2022-07-29T11:59:10;35.00;49.80
38265;DHT22;24062;47.480;8.768;2022-07-29T12:01:37;35.00;48.90
38265;DHT22;24062;47.480;8.768;2022-07-29T12:04:18;34.70;48.10
38265;DHT22;24062;47.480;8.768;2022-07-29T12:06:49;34.20;47.50
38265;DHT22;24062;47.480;8.768;2022-07-29T12:09:18;34.00;47.70
38265;DHT22;24062;47.480;8.768;2022-07-29T12:11:46;33.80;47.40
38265;DHT22;24062;47.480;8.768;2022-07-29T12:14:25;33.50;47.40
38265;DHT22;24062;47.480;8.768;2022-07-29T12:16:52;33.20;47.50
38265;DHT22;24062;47.480;8.768;2022-07-29T12:19:19;33.20;47.80
38265;DHT22;24062;47.480;8.768;2022-07-29T12:21:46;33.10;47.50
38265;DHT22;24062;47.480;8.768;2022-07-29T12:24:14;33.10;47.60
38265;DHT22;24062;47.480;8.768;2022-07-29T12:26:51;33.10;47.50
38265;DHT22;24062;47.480;8.768;2022-07-29T12:29:18;33.10;47.60
38265;DHT22;24062;47.480;8.768;2022-07-29T12:31:46;33.00;46.90
38265;DHT22;24062;47.480;8.768;2022-07-29T12:34:15;32.80;47.10
38265;DHT22;24062;47.480;8.768;2022-07-29T12:36:42;32.60;47.00
38265;DHT22;24062;47.480;8.768;2022-07-29T12:39:10;32.50;47.20
38265;DHT22;24062;47.480;8.768;2022-07-29T12:41:37;32.20;47.00
38265;DHT22;24062;47.480;8.768;2022-07-29T12:44:06;32.00;47.30
38265;DHT22;24062;47.480;8.768;2022-07-29T12:46:33;31.90;47.20
38265;DHT22;24062;47.480;8.768;2022-07-29T12:49:00;31.80;47.20
38265;DHT22;24062;47.480;8.768;2022-07-29T12:51:31;31.90;47.10
38265;DHT22;24062;47.480;8.768;2022-07-29T12:54:10;31.70;46.70
38265;DHT22;24062;47.480;8.768;2022-07-29T12:56:37;31.70;46.80
38265;DHT22;24062;47.480;8.768;2022-07-29T12:59:18;31.70;46.80
38265;DHT22;24062;47.480;8.768;2022-07-29T13:01:46;31.50;46.40
38265;DHT22;24062;47.480;8.768;2022-07-29T13:04:25;31.10;46.20
38265;DHT22;24062;47.480;8.768;2022-07-29T13:06:59;30.80;46.60
38265;DHT22;24062;47.480;8.768;2022-07-29T13:09:36;30.60;46.70
38265;DHT22;24062;47.480;8.768;2022-07-29T13:12:07;30.60;47.40
38265;DHT22;24062;47.480;8.768;2022-07-29T13:14:38;30.70;47.50
38265;DHT22;24062;47.480;8.768;2022-07-29T13:17:07;30.80;47.80
38265;DHT22;24062;47.480;8.768;2022-07-29T13:19:36;30.90;47.80
38265;DHT22;24062;47.480;8.768;2022-07-29T13:22:04;31.00;47.80
38265;DHT22;24062;47.480;8.768;2022-07-29T13:24:31;30.90;47.80
38265;DHT22;24062;47.480;8.768;2022-07-29T13:26:58;30.80;47.80
38265;DHT22;24062;47.480;8.768;2022-07-29T13:29:25;30.60;47.80
38265;DHT22;24062;47.480;8.768;2022-07-29T13:31:54;30.30;47.90
38265;DHT22;24062;47.480;8.768;2022-07-29T13:34:20;30.00;48.10
38265;DHT22;24062;47.480;8.768;2022-07-29T13:36:49;29.60;48.20
38265;DHT22;24062;47.480;8.768;2022-07-29T13:39:16;29.20;48.80
38265;DHT22;24062;47.480;8.768;2022-07-29T13:41:43;28.70;49.00
38265;DHT22;24062;47.480;8.768;2022-07-29T13:44:10;28.10;50.00
38265;DHT22;24062;47.480;8.768;2022-07-29T13:46:37;26.60;52.70
38265;DHT22;24062;47.480;8.768;2022-07-29T13:49:05;24.70;57.50
38265;DHT22;24062;47.480;8.768;2022-07-29T13:51:32;23.30;63.00
38265;DHT22;24062;47.480;8.768;2022-07-29T13:53:59;22.30;67.40
38265;DHT22;24062;47.480;8.768;2022-07-29T13:56:26;21.80;71.40
38265;DHT22;24062;47.480;8.768;2022-07-29T13:58:52;21.80;75.20
38265;DHT22;24062;47.480;8.768;2022-07-29T14:01:19;22.00;79.10
38265;DHT22;24062;47.480;8.768;2022-07-29T14:03:46;22.90;82.40
38265;DHT22;24062;47.480;8.768;2022-07-29T14:06:14;23.90;82.30
38265;DHT22;24062;47.480;8.768;2022-07-29T14:08:41;24.50;81.10
38265;DHT22;24062;47.480;8.768;2022-07-29T14:11:08;24.80;79.80
38265;DHT22;24062;47.480;8.768;2022-07-29T14:13:35;24.90;79.80
38265;DHT22;24062;47.480;8.768;2022-07-29T14:16:03;25.00;79.80
38265;DHT22;24062;47.480;8.768;2022-07-29T14:18:30;24.90;79.10
38265;DHT22;24062;47.480;8.768;2022-07-29T14:20:57;24.90;79.30
38265;DHT22;24062;47.480;8.768;2022-07-29T14:23:25;24.80;79.20
38265;DHT22;24062;47.480;8.768;2022-07-29T14:25:52;24.70;79.40
38265;DHT22;24062;47.480;8.768;2022-07-29T14:28:19;24.50;79.60
38265;DHT22;24062;47.480;8.768;2022-07-29T14:30:46;24.40;80.00
38265;DHT22;24062;47.480;8.768;2022-07-29T14:33:13;24.50;80.90
38265;DHT22;24062;47.480;8.768;2022-07-29T14:35:39;24.60;80.70
38265;DHT22;24062;47.480;8.768;2022-07-29T14:38:06;24.60;81.50
38265;DHT22;24062;47.480;8.768;2022-07-29T14:40:35;24.70;81.70
38265;DHT22;24062;47.480;8.768;2022-07-29T14:43:02;24.90;81.70
38265;DHT22;24062;47.480;8.768;2022-07-29T14:45:29;24.90;81.50
38265;DHT22;24062;47.480;8.768;2022-07-29T14:47:56;24.90;81.10
38265;DHT22;24062;47.480;8.768;2022-07-29T14:50:24;24.80;79.40
38265;DHT22;24062;47.480;8.768;2022-07-29T14:55:01;23.80;79.20
38265;DHT22;24062;47.480;8.768;2022-07-29T14:59:09;22.20;84.00
38265;DHT22;24062;47.480;8.768;2022-07-29T15:03:56;21.60;88.40
38265;DHT22;24062;47.480;8.768;2022-07-29T15:08:11;21.10;90.60
38265;DHT22;24062;47.480;8.768;2022-07-29T15:12:11;21.00;90.70
38265;DHT22;24062;47.480;8.768;2022-07-29T15:16:13;20.90;91.10
38265;DHT22;24062;47.480;8.768;2022-07-29T15:20:21;20.70;91.50
38265;DHT22;24062;47.480;8.768;2022-07-29T15:24:39;20.70;91.70
38265;DHT22;24062;47.480;8.768;2022-07-29T15:28:39;20.50;91.60
38265;DHT22;24062;47.480;8.768;2022-07-29T15:32:41;20.30;91.70
38265;DHT22;24062;47.480;8.768;2022-07-29T15:36:52;20.20;92.40
38265;DHT22;24062;47.480;8.768;2022-07-29T15:41:07;20.30;93.00
38265;DHT22;24062;47.480;8.768;2022-07-29T15:45:08;20.40;93.10
38265;DHT22;24062;47.480;8.768;2022-07-29T15:49:10;20.50;93.40
38265;DHT22;24062;47.480;8.768;2022-07-29T15:53:17;20.60;93.50
38265;DHT22;24062;47.480;8.768;2022-07-29T15:57:33;20.70;93.80
38265;DHT22;24062;47.480;8.768;2022-07-29T16:01:33;20.80;93.80
38265;DHT22;24062;47.480;8.768;2022-07-29T16:05:35;20.90;94.00
38265;DHT22;24062;47.480;8.768;2022-07-29T16:09:39;21.00;94.10
38265;DHT22;24062;47.480;8.768;2022-07-29T16:13:57;21.00;94.30
38265;DHT22;24062;47.480;8.768;2022-07-29T16:18:16;21.20;94.60
38265;DHT22;24062;47.480;8.768;2022-07-29T16:22:18;21.30;94.60
38265;DHT22;24062;47.480;8.768;2022-07-29T16:26:18;21.40;94.70